createdAt,value
2023-03-03T00:45:44.427Z,56.60
2023-03-03T00:49:39.127Z,54.00
2023-03-03T00:53:11.469Z,54.80
2023-03-03T00:56:36.072Z,49.90
2023-03-03T01:00:25.525Z,45.20
2023-03-03T01:04:14.314Z,48.30
2023-03-03T01:07:32.079Z,44.10
2023-03-03T01:11:17.459Z,42.00
2023-03-03T01:14:59.806Z,39.00
2023-03-03T01:18:32.829Z,38.50
2023-03-03T01:22:21.855Z,37.40
2023-03-03T01:26:02.598Z,41.60
2023-03-03T01:29:12.075Z,39.90
2023-03-03T01:32:59.512Z,40.00
2023-03-03T01:36:41.588Z,37.10
2023-03-03T01:40:32.345Z,35.20
2023-03-03T01:44:14.855Z,35.90
2023-03-03T02:06:30.406Z,36.20
2023-03-03T02:09:38.567Z,34.40
2023-03-03T02:13:17.558Z,34.00
2023-03-03T02:16:49.771Z,40.00
2023-03-03T02:20:07.205Z,44.20
2023-03-03T02:24:09.484Z,35.20
2023-03-03T03:24:06.993Z,24.10
2023-03-03T03:33:44.769Z,21.50
2023-03-03T03:36:32.136Z,24.50
2023-03-03T03:39:30.000Z,24.50
2023-03-03T03:42:24.532Z,26.10
2023-03-03T03:45:10.489Z,25.60
2023-03-03T03:48:22.091Z,23.70
2023-03-03T03:51:33.976Z,25.40
2023-03-03T03:54:23.025Z,26.70
2023-03-03T03:57:48.147Z,25.80
2023-03-03T04:00:49.454Z,26.70
2023-03-03T04:04:29.682Z,25.80
2023-03-03T04:07:26.907Z,26.20
2023-03-03T04:10:48.683Z,25.70
2023-03-03T04:14:17.844Z,26.50
2023-03-03T04:17:31.294Z,24.00
2023-03-03T04:20:39.963Z,24.40
2023-03-03T04:24:20.010Z,24.80
2023-03-03T04:29:29.367Z,27.10
2023-03-03T04:32:33.019Z,32.10
2023-03-03T04:35:56.422Z,50.30
2023-03-03T04:39:36.745Z,44.20
2023-03-03T04:45:48.271Z,36.30
2023-03-03T04:48:57.096Z,33.60
2023-03-03T04:51:59.941Z,32.00
2023-03-03T04:55:36.765Z,35.10
2023-03-03T04:58:51.189Z,35.00
2023-03-03T05:01:53.428Z,36.80
2023-03-03T05:05:22.892Z,35.60
2023-03-03T05:08:02.523Z,30.90
2023-03-03T05:11:14.198Z,33.70
2023-03-03T05:14:23.035Z,35.40
2023-03-03T05:17:17.615Z,42.90
2023-03-03T05:20:12.665Z,115.20
2023-03-03T05:23:23.944Z,103.00
2023-03-03T05:26:01.127Z,95.40
2023-03-03T05:28:34.714Z,95.60
2023-03-03T05:31:02.928Z,112.80
2023-03-03T05:33:35.020Z,60.50
2023-03-03T05:36:27.532Z,42.10
2023-03-03T05:39:18.987Z,48.40
2023-03-03T05:41:47.386Z,59.40
2023-03-03T05:44:45.968Z,60.90
2023-03-03T05:47:45.454Z,62.20
2023-03-03T05:50:34.746Z,58.80
2023-03-03T05:53:29.288Z,53.70
2023-03-03T05:55:59.937Z,49.60
2023-03-03T05:58:46.676Z,46.30
2023-03-03T06:01:58.865Z,48.30
2023-03-03T06:04:47.466Z,46.60
2023-03-03T06:07:30.453Z,59.70
2023-03-03T06:10:37.699Z,51.80
2023-03-03T06:13:32.503Z,46.70
2023-03-03T06:16:44.363Z,47.90
2023-03-03T06:19:50.322Z,47.20
2023-03-03T06:22:43.385Z,45.40
2023-03-03T06:25:35.937Z,49.40
2023-03-03T06:28:45.277Z,53.10
2023-03-03T06:31:47.026Z,58.50
2023-03-03T06:34:58.952Z,56.20
2023-03-03T06:37:55.292Z,58.10
2023-03-03T06:40:49.015Z,59.40
2023-03-03T06:44:20.083Z,54.40
2023-03-03T06:46:51.126Z,52.40
2023-03-03T06:49:27.743Z,53.60
2023-03-03T06:52:19.104Z,52.10
2023-03-03T06:55:45.234Z,57.80
2023-03-03T06:58:41.735Z,65.00
2023-03-03T07:01:20.972Z,73.50
2023-03-03T07:04:40.836Z,78.50
2023-03-03T07:07:54.930Z,82.70
2023-03-03T07:10:33.374Z,83.50
2023-03-03T07:13:26.043Z,82.40
2023-03-03T07:16:16.038Z,83.40
2023-03-03T07:19:06.945Z,97.20
2023-03-03T07:22:18.291Z,95.70
2023-03-03T07:25:22.493Z,93.00
2023-03-03T07:28:42.412Z,93.10
2023-03-03T07:31:47.971Z,97.80
2023-03-03T07:35:07.711Z,94.30
2023-03-03T07:38:31.709Z,99.40
2023-03-03T07:41:29.437Z,102.60
2023-03-03T07:44:42.342Z,100.70
2023-03-03T07:47:40.896Z,95.10
2023-03-03T07:50:22.610Z,101.80
2023-03-03T07:53:21.981Z,100.50
2023-03-03T07:56:46.421Z,104.20
2023-03-03T07:59:48.853Z,104.40
2023-03-03T08:03:04.756Z,101.30
2023-03-03T08:09:56.667Z,95.50
2023-03-03T08:12:59.330Z,104.40
2023-03-03T08:16:32.588Z,105.60
2023-03-03T08:19:39.307Z,101.30
2023-03-03T08:22:45.014Z,92.40
2023-03-03T08:25:25.058Z,96.60
2023-03-03T08:28:13.782Z,94.40
2023-03-03T08:31:41.899Z,106.70
2023-03-03T08:34:31.193Z,102.10
2023-03-03T08:37:46.266Z,104.80
2023-03-03T08:40:40.971Z,91.40
2023-03-03T08:43:57.225Z,103.00
2023-03-03T08:47:10.757Z,103.20
2023-03-03T08:50:07.543Z,107.10
2023-03-03T08:53:07.533Z,109.00
2023-03-03T08:55:45.592Z,94.60
2023-03-03T08:58:18.197Z,98.80
2023-03-03T09:01:41.365Z,104.40
2023-03-03T09:04:32.410Z,105.20
2023-03-03T09:08:21.912Z,99.20
2023-03-03T09:11:21.750Z,100.90
2023-03-03T09:14:39.571Z,99.60
2023-03-03T09:17:57.772Z,83.00
2023-03-03T09:21:47.813Z,96.10
2023-03-03T09:24:55.465Z,84.70
2023-03-03T09:28:24.154Z,100.50
2023-03-03T09:31:24.359Z,82.70
2023-03-03T09:34:41.039Z,92.80
2023-03-03T09:38:05.421Z,104.10
2023-03-03T09:41:10.668Z,93.70
2023-03-03T09:48:33.778Z,89.00
2023-03-03T09:56:02.210Z,90.20
2023-03-03T09:58:58.490Z,81.60
2023-03-03T10:01:58.638Z,92.20
2023-03-03T10:05:14.662Z,82.10
2023-03-03T10:09:26.839Z,87.60
2023-03-03T10:16:38.977Z,78.30
2023-03-03T10:20:28.138Z,74.20
2023-03-03T10:23:43.022Z,74.90
2023-03-03T10:27:09.820Z,83.10
2023-03-03T10:31:04.350Z,73.10
2023-03-03T10:34:36.613Z,80.60
2023-03-03T10:38:27.213Z,77.80
2023-03-03T10:42:07.249Z,73.10
2023-03-03T10:45:56.481Z,70.00
2023-03-03T11:23:42.500Z,89.00
2023-03-03T11:30:35.474Z,86.40
2023-03-03T11:34:07.247Z,83.30
2023-03-03T11:36:50.985Z,79.90
2023-03-03T11:39:36.820Z,75.30
2023-03-03T11:43:01.488Z,68.10
2023-03-03T11:47:01.385Z,73.10
2023-03-03T11:51:01.168Z,65.70
2023-03-03T11:55:01.234Z,63.90
2023-03-03T11:58:01.083Z,67.00
2023-03-03T12:00:37.390Z,69.30
2023-03-03T12:03:35.890Z,73.80
2023-03-03T12:07:21.155Z,68.50
2023-03-03T12:11:19.892Z,63.20
2023-03-03T12:14:33.793Z,67.70
2023-03-03T12:17:23.352Z,76.60
2023-03-03T12:20:47.683Z,75.20
2023-03-03T12:24:32.847Z,68.70
2023-03-03T12:28:08.381Z,59.30
2023-03-03T12:35:36.734Z,56.50
2023-03-03T12:39:32.374Z,64.40
2023-03-03T12:43:02.432Z,60.50
2023-03-03T12:46:29.448Z,69.60
2023-03-03T12:50:11.938Z,73.00
2023-03-03T12:53:52.317Z,66.70
2023-03-03T12:57:04.664Z,70.30
2023-03-03T13:01:08.835Z,61.50
2023-03-03T13:04:50.071Z,68.70
2023-03-03T13:08:31.371Z,69.60
2023-03-03T13:12:08.021Z,60.80
2023-03-03T13:15:58.342Z,58.90
2023-03-03T13:19:23.144Z,58.80
2023-03-03T13:50:58.038Z,58.20
2023-03-03T14:13:13.784Z,54.50
2023-03-03T14:16:40.816Z,53.10
2023-03-03T14:20:30.081Z,48.00
2023-03-03T14:23:46.669Z,50.60
2023-03-03T14:56:05.297Z,48.40
2023-03-03T14:59:54.607Z,48.20
2023-03-03T15:02:54.006Z,49.40
2023-03-03T15:06:38.069Z,48.50
2023-03-03T15:09:58.950Z,45.80
2023-03-03T15:12:37.767Z,47.10
2023-03-03T15:15:30.966Z,47.10
2023-03-03T15:18:10.308Z,45.70
2023-03-03T15:21:22.261Z,41.10
2023-03-03T15:24:29.676Z,46.20
2023-03-03T15:27:50.895Z,39.90
2023-03-03T15:31:02.828Z,42.70
2023-03-03T15:34:26.546Z,44.20
2023-03-03T15:37:53.703Z,42.50
2023-03-03T15:41:08.074Z,40.60
2023-03-03T15:44:47.404Z,40.60
2023-03-03T15:48:47.673Z,41.40
2023-03-03T15:52:14.177Z,39.90
2023-03-03T15:55:05.748Z,40.30
2023-03-03T15:57:51.218Z,43.00
2023-03-03T16:00:43.944Z,43.90
2023-03-03T16:03:24.098Z,41.90
2023-03-03T16:06:18.952Z,40.80
2023-03-03T16:09:31.099Z,41.40
2023-03-03T16:12:50.618Z,42.60
2023-03-03T16:16:29.587Z,48.90
2023-03-03T16:20:24.366Z,43.30
2023-03-03T16:23:57.162Z,46.50
2023-03-03T16:28:07.517Z,52.90
2023-03-03T16:54:38.003Z,34.90
2023-03-03T16:58:51.410Z,41.50
2023-03-03T17:02:55.937Z,37.70
2023-03-03T17:06:55.391Z,39.80
2023-03-03T17:10:31.950Z,39.40
2023-03-03T17:22:41.641Z,43.20
2023-03-03T17:26:39.591Z,44.30
2023-03-03T17:30:36.366Z,46.50
2023-03-03T17:34:11.669Z,52.30
2023-03-03T17:37:15.087Z,50.10
2023-03-03T17:40:56.713Z,51.90
2023-03-03T17:56:33.474Z,39.40
2023-03-03T18:00:19.265Z,37.90
2023-03-03T18:04:08.649Z,38.00
2023-03-03T18:07:34.933Z,42.40
2023-03-03T18:11:26.991Z,46.40
2023-03-03T18:15:12.310Z,39.40
2023-03-03T18:18:21.719Z,39.50
2023-03-03T18:22:06.959Z,44.80
2023-03-03T18:25:50.323Z,55.50
2023-03-03T18:56:33.593Z,39.20
2023-03-03T18:59:47.272Z,39.60
2023-03-03T19:10:42.751Z,43.60
2023-03-03T19:13:49.517Z,47.90
2023-03-03T19:17:43.370Z,49.00
2023-03-03T19:20:18.618Z,50.20
2023-03-03T19:23:04.564Z,52.10
2023-03-03T19:26:59.006Z,51.10
2023-03-03T19:31:17.430Z,50.20
2023-03-03T19:34:54.424Z,51.60
2023-03-03T19:38:03.028Z,46.40
2023-03-03T19:41:41.154Z,48.50
2023-03-03T19:45:15.004Z,48.70
2023-03-03T20:04:01.041Z,48.10
2023-03-03T20:07:23.996Z,45.60
2023-03-03T20:11:15.375Z,47.00
2023-03-03T20:14:32.566Z,50.10
2023-03-03T20:18:27.922Z,51.80
2023-03-03T20:25:45.961Z,46.90
2023-03-03T20:29:13.752Z,50.30
2023-03-03T20:32:43.971Z,50.40
2023-03-03T20:36:24.892Z,50.30
2023-03-03T21:14:41.472Z,54.40
2023-03-03T21:18:09.537Z,52.10
2023-03-03T21:22:01.530Z,50.40
2023-03-03T21:25:54.757Z,48.30
2023-03-03T21:29:39.376Z,46.50
2023-03-03T21:33:31.365Z,41.90
2023-03-03T21:37:01.083Z,38.20
2023-03-03T21:52:21.905Z,35.80
2023-03-03T21:55:50.334Z,37.10
2023-03-03T21:59:32.804Z,40.40
2023-03-03T22:02:33.720Z,34.50
2023-03-03T22:05:53.954Z,37.70
2023-03-03T22:09:08.547Z,35.50
2023-03-03T22:12:40.296Z,31.70
2023-03-03T22:16:04.926Z,31.70
2023-03-03T22:19:10.076Z,31.80
2023-03-03T22:22:42.814Z,30.60
2023-03-03T22:26:16.973Z,33.20
2023-03-03T22:29:38.914Z,32.80
2023-03-03T22:32:57.010Z,33.90
2023-03-03T22:35:58.997Z,32.30
2023-03-03T22:39:41.144Z,33.50
2023-03-03T22:43:30.131Z,32.90
2023-03-03T22:47:18.260Z,33.40
2023-03-03T22:50:58.518Z,31.40
2023-03-03T22:54:29.503Z,29.40
2023-03-03T22:58:18.824Z,26.90
2023-03-03T23:02:08.413Z,25.10
2023-03-03T23:05:51.343Z,27.40
2023-03-03T23:09:26.144Z,23.10
2023-03-03T23:16:13.225Z,25.30
2023-03-03T23:19:29.248Z,25.10
